createdAt,value
2022-08-11T00:01:44.083Z,51.73
2022-08-11T00:04:47.311Z,51.65
2022-08-11T00:07:55.157Z,52.58
2022-08-11T00:11:02.614Z,51.92
2022-08-11T00:14:14.814Z,52.68
2022-08-11T00:17:18.068Z,53.74
2022-08-11T00:20:21.237Z,53.19
2022-08-11T00:23:26.100Z,53.71
2022-08-11T00:26:29.808Z,53.72
2022-08-11T00:29:34.016Z,54.15
2022-08-11T00:32:43.040Z,54.15
2022-08-11T00:35:50.978Z,54.46
2022-08-11T00:39:05.163Z,54.35
2022-08-11T00:42:18.364Z,54.11
2022-08-11T00:45:29.160Z,52.99
2022-08-11T00:48:55.780Z,53.71
2022-08-11T00:52:50.830Z,53.74
2022-08-11T00:56:18.429Z,54.10
2022-08-11T00:59:39.429Z,53.39
2022-08-11T01:02:55.854Z,54.39
2022-08-11T01:06:49.443Z,54.00
2022-08-11T01:09:52.403Z,53.28
2022-08-11T01:13:29.413Z,54.60
2022-08-11T01:16:51.157Z,53.94
2022-08-11T01:20:45.453Z,53.71
2022-08-11T01:24:03.146Z,53.81
2022-08-11T01:27:27.858Z,54.16
2022-08-11T01:31:09.416Z,54.74
2022-08-11T01:34:27.533Z,54.66
2022-08-11T01:38:08.269Z,54.39
2022-08-11T01:41:20.713Z,54.69
2022-08-11T01:44:44.253Z,54.85
2022-08-11T01:48:08.884Z,54.75
2022-08-11T01:51:21.047Z,54.34
2022-08-11T01:54:31.538Z,54.57
2022-08-11T01:57:42.799Z,54.29
2022-08-11T02:01:16.720Z,54.08
2022-08-11T02:04:38.886Z,55.02
2022-08-11T02:08:06.451Z,55.52
2022-08-11T02:11:35.719Z,56.60
2022-08-11T02:15:12.174Z,55.11
2022-08-11T02:18:48.504Z,56.34
2022-08-11T02:22:21.755Z,55.02
2022-08-11T02:25:34.536Z,55.64
2022-08-11T02:28:40.272Z,55.67
2022-08-11T02:32:48.499Z,56.19
2022-08-11T02:36:09.371Z,56.46
2022-08-11T02:39:18.627Z,57.11
2022-08-11T02:42:32.681Z,57.25
2022-08-11T02:45:54.603Z,57.70
2022-08-11T02:49:22.366Z,57.36
2022-08-11T02:52:59.180Z,58.01
2022-08-11T02:56:14.123Z,58.73
2022-08-11T02:59:49.980Z,58.34
2022-08-11T03:03:17.321Z,58.38
2022-08-11T03:06:38.918Z,58.30
2022-08-11T03:09:55.492Z,58.74
2022-08-11T03:13:27.617Z,58.83
2022-08-11T03:17:21.705Z,59.13
2022-08-11T03:20:39.290Z,59.68
2022-08-11T03:23:54.844Z,59.96
2022-08-11T03:27:23.126Z,59.78
2022-08-11T03:31:07.223Z,60.08
2022-08-11T03:34:16.080Z,60.51
2022-08-11T03:37:50.973Z,60.98
2022-08-11T03:41:49.395Z,60.80
2022-08-11T03:45:01.329Z,60.31
2022-08-11T03:48:25.162Z,61.10
2022-08-11T03:51:51.962Z,61.15
2022-08-11T03:55:08.597Z,61.62
2022-08-11T03:58:35.049Z,61.08
2022-08-11T04:02:18.103Z,60.40
2022-08-11T04:05:24.828Z,60.92
2022-08-11T04:08:27.552Z,60.76
2022-08-11T04:11:49.295Z,61.15
2022-08-11T04:15:32.328Z,60.96
2022-08-11T04:18:56.445Z,60.38
2022-08-11T04:22:37.942Z,60.74
2022-08-11T04:25:58.947Z,59.94
2022-08-11T04:29:36.199Z,60.53
2022-08-11T04:32:53.357Z,59.92
2022-08-11T04:36:09.690Z,59.75
2022-08-11T04:39:24.056Z,59.65
2022-08-11T04:42:45.417Z,59.53
2022-08-11T04:46:25.899Z,59.38
2022-08-11T04:50:15.563Z,59.87
2022-08-11T04:53:52.684Z,59.37
2022-08-11T04:57:23.356Z,59.42
2022-08-11T05:00:56.753Z,58.48
2022-08-11T05:04:28.220Z,58.19
2022-08-11T05:07:37.212Z,57.54
2022-08-11T05:11:01.808Z,56.69
2022-08-11T05:14:41.797Z,56.54
2022-08-11T05:18:14.824Z,56.63
2022-08-11T05:21:44.659Z,56.17
2022-08-11T05:25:11.305Z,55.64
2022-08-11T05:28:39.189Z,55.03
2022-08-11T05:32:05.281Z,54.44
2022-08-11T05:35:09.712Z,54.39
2022-08-11T05:38:44.714Z,54.26
2022-08-11T05:42:08.972Z,53.54
2022-08-11T05:46:02.476Z,53.38
2022-08-11T05:49:28.569Z,52.45
2022-08-11T05:52:56.653Z,52.21
2022-08-11T05:56:21.317Z,52.68
2022-08-11T05:59:25.336Z,51.99
2022-08-11T06:02:29.821Z,50.93
2022-08-11T06:05:38.547Z,51.32
2022-08-11T06:08:46.851Z,50.84
2022-08-11T06:11:51.059Z,50.38
2022-08-11T06:15:01.732Z,49.75
2022-08-11T06:18:12.141Z,49.22
2022-08-11T06:21:16.991Z,49.47
2022-08-11T06:24:20.121Z,48.69
2022-08-11T06:27:26.685Z,48.71
2022-08-11T06:30:49.181Z,48.36
2022-08-11T06:34:28.329Z,48.42
2022-08-11T06:37:49.847Z,48.22
2022-08-11T06:41:33.254Z,47.63
2022-08-11T06:44:49.669Z,47.00
2022-08-11T06:47:53.414Z,46.90
2022-08-11T06:51:15.237Z,46.44
2022-08-11T06:54:20.877Z,46.21
2022-08-11T06:57:43.517Z,45.77
2022-08-11T07:00:49.255Z,45.55
2022-08-11T07:04:00.291Z,45.35
2022-08-11T07:08:33.900Z,44.81
2022-08-11T07:12:28.175Z,44.13
2022-08-11T07:16:13.016Z,43.89
2022-08-11T07:20:11.396Z,43.72
2022-08-11T07:23:35.753Z,43.39
2022-08-11T07:27:02.372Z,42.71
2022-08-11T07:30:10.633Z,42.00
2022-08-11T07:34:05.786Z,41.99
2022-08-11T07:36:49.173Z,41.65
2022-08-11T07:39:54.183Z,41.68
2022-08-11T07:43:00.827Z,41.03
2022-08-11T07:46:24.370Z,40.12
2022-08-11T07:49:48.057Z,40.03
2022-08-11T07:52:53.915Z,39.89
2022-08-11T07:56:00.755Z,39.03
2022-08-11T07:59:25.459Z,39.45
2022-08-11T08:03:08.800Z,39.51
2022-08-11T08:06:36.464Z,39.65
2022-08-11T08:10:00.659Z,39.83
2022-08-11T08:13:24.911Z,39.30
2022-08-11T08:16:48.909Z,38.83
2022-08-11T08:19:52.921Z,38.07
2022-08-11T08:22:59.570Z,37.25
2022-08-11T08:26:30.375Z,37.71
2022-08-11T08:29:55.325Z,38.20
2022-08-11T08:32:59.318Z,37.44
2022-08-11T08:36:11.936Z,37.00
2022-08-11T08:39:16.792Z,36.72
2022-08-11T08:42:31.872Z,36.66
2022-08-11T08:45:37.894Z,37.13
2022-08-11T08:48:43.541Z,37.67
2022-08-11T08:52:01.291Z,37.74
2022-08-11T08:55:19.736Z,37.32
2022-08-11T08:58:25.047Z,36.83
2022-08-11T09:01:36.685Z,36.43
2022-08-11T09:04:44.191Z,36.62
2022-08-11T09:07:51.217Z,35.81
2022-08-11T09:11:16.397Z,35.01
2022-08-11T09:14:50.954Z,35.09
2022-08-11T09:18:03.672Z,34.96
2022-08-11T09:21:07.661Z,34.54
2022-08-11T09:24:30.990Z,34.57
2022-08-11T09:27:35.491Z,34.28
2022-08-11T09:30:42.893Z,34.00
2022-08-11T09:33:46.502Z,33.54
2022-08-11T09:37:08.849Z,33.92
2022-08-11T09:40:29.205Z,33.78
2022-08-11T09:43:55.211Z,34.00
2022-08-11T09:47:00.908Z,33.18
2022-08-11T09:50:06.698Z,32.12
2022-08-11T09:53:34.794Z,32.91
2022-08-11T09:56:54.800Z,32.29
2022-08-11T10:00:12.398Z,32.59
2022-08-11T10:03:18.484Z,31.19
2022-08-11T10:06:39.984Z,30.49
2022-08-11T10:09:58.990Z,31.29
2022-08-11T10:14:30.553Z,31.39
2022-08-11T10:16:44.232Z,32.09
2022-08-11T10:20:05.050Z,32.12
2022-08-11T10:23:31.529Z,30.90
2022-08-11T10:26:53.688Z,31.13
2022-08-11T10:30:16.006Z,31.42
2022-08-11T10:33:42.863Z,31.99
2022-08-11T10:36:55.741Z,31.88
2022-08-11T10:39:59.437Z,31.00
2022-08-11T10:43:05.540Z,30.96
2022-08-11T10:46:30.270Z,30.73
2022-08-11T10:49:34.049Z,30.91
2022-08-11T10:52:56.660Z,30.20
2022-08-11T10:56:18.937Z,30.12
2022-08-11T10:59:24.665Z,30.55
2022-08-11T11:02:29.009Z,30.33
2022-08-11T11:05:32.918Z,29.90
2022-08-11T11:08:57.594Z,29.67
2022-08-11T11:12:30.468Z,29.82
2022-08-11T11:15:55.606Z,29.46
2022-08-11T11:19:03.713Z,30.29
2022-08-11T11:22:26.804Z,29.91
2022-08-11T11:26:05.379Z,29.68
2022-08-11T11:29:30.310Z,30.00
2022-08-11T11:32:36.006Z,31.39
2022-08-11T11:36:02.012Z,30.96
2022-08-11T11:39:05.860Z,30.54
2022-08-11T11:42:10.676Z,31.07
2022-08-11T11:45:22.526Z,31.27
2022-08-11T11:48:29.014Z,30.57
2022-08-11T11:51:31.869Z,29.80
2022-08-11T11:54:36.872Z,28.90
2022-08-11T11:58:02.886Z,28.63
2022-08-11T12:01:20.953Z,28.19
2022-08-11T12:04:25.248Z,27.34
2022-08-11T12:07:56.978Z,27.03
2022-08-11T12:11:29.827Z,26.42
2022-08-11T12:14:33.422Z,27.03
2022-08-11T12:17:38.286Z,27.03
2022-08-11T12:20:45.081Z,27.44
2022-08-11T12:24:07.638Z,27.78
2022-08-11T12:27:28.587Z,27.15
2022-08-11T12:30:32.119Z,25.78
2022-08-11T12:33:38.789Z,27.03
2022-08-11T12:37:05.774Z,28.11
2022-08-11T12:40:42.536Z,29.18
2022-08-11T12:44:15.084Z,29.47
2022-08-11T12:47:20.262Z,28.23
2022-08-11T12:50:42.679Z,26.73
2022-08-11T12:53:54.216Z,26.22
2022-08-11T12:57:38.868Z,25.81
2022-08-11T13:01:00.659Z,26.34
2022-08-11T13:04:23.700Z,27.29
2022-08-11T13:07:28.212Z,28.15
2022-08-11T13:11:12.541Z,27.99
2022-08-11T13:14:16.898Z,28.78
2022-08-11T13:17:40.227Z,26.67
2022-08-11T13:20:48.459Z,26.08
2022-08-11T13:24:01.568Z,25.38
2022-08-11T13:27:05.887Z,26.05
2022-08-11T13:30:28.384Z,26.19
2022-08-11T13:33:32.533Z,26.33
2022-08-11T13:36:36.185Z,25.76
2022-08-11T13:39:47.463Z,26.19
2022-08-11T13:42:52.943Z,27.45
2022-08-11T13:46:16.544Z,27.60
2022-08-11T13:49:22.022Z,27.47
2022-08-11T13:52:26.424Z,27.08
2022-08-11T13:55:50.792Z,26.27
2022-08-11T13:58:54.207Z,25.65
2022-08-11T14:02:22.365Z,25.56
2022-08-11T14:05:31.314Z,25.64
2022-08-11T14:08:40.223Z,25.68
2022-08-11T14:12:21.364Z,25.49
2022-08-11T14:15:32.038Z,25.14
2022-08-11T14:18:38.095Z,25.40
2022-08-11T14:22:07.714Z,25.92
2022-08-11T14:25:13.090Z,25.92
2022-08-11T14:28:31.106Z,25.51
2022-08-11T14:31:40.999Z,26.25
2022-08-11T14:34:44.641Z,26.02
2022-08-11T14:37:48.551Z,26.13
2022-08-11T14:41:10.982Z,25.82
2022-08-11T14:44:32.629Z,25.28
2022-08-11T14:47:38.198Z,25.67
2022-08-11T14:50:42.612Z,25.02
2022-08-11T14:53:58.382Z,25.12
2022-08-11T14:57:03.368Z,25.36
2022-08-11T15:00:08.971Z,26.23
2022-08-11T15:03:15.448Z,28.23
2022-08-11T15:06:18.467Z,28.00
2022-08-11T15:09:21.857Z,27.70
2022-08-11T15:12:32.534Z,26.88
2022-08-11T15:15:56.089Z,26.82
2022-08-11T15:18:59.241Z,26.56
2022-08-11T15:22:24.811Z,25.81
2022-08-11T15:25:34.536Z,25.86
2022-08-11T15:29:02.882Z,26.18
2022-08-11T15:32:22.809Z,26.45
2022-08-11T15:35:46.985Z,26.66
2022-08-11T15:38:57.988Z,27.10
2022-08-11T15:42:23.550Z,27.44
2022-08-11T15:45:45.893Z,27.37
2022-08-11T15:49:01.330Z,27.93
2022-08-11T15:52:10.181Z,27.67
2022-08-11T15:55:14.354Z,28.04
2022-08-11T15:58:38.867Z,27.73
2022-08-11T16:02:04.216Z,27.59
2022-08-11T16:05:11.689Z,27.68
2022-08-11T16:08:17.437Z,27.89
2022-08-11T16:11:38.759Z,28.19
2022-08-11T16:15:03.484Z,28.64
2022-08-11T16:18:07.040Z,28.58
2022-08-11T16:21:34.430Z,29.07
2022-08-11T16:27:04.289Z,29.19
2022-08-11T16:28:10.280Z,29.65
2022-08-11T16:31:19.258Z,29.59
2022-08-11T16:34:40.607Z,29.87
2022-08-11T16:38:03.525Z,30.00
2022-08-11T16:41:12.715Z,30.15
2022-08-11T16:44:38.295Z,30.47
2022-08-11T16:48:33.011Z,30.27
2022-08-11T16:51:11.955Z,30.54
2022-08-11T16:54:14.957Z,30.87
2022-08-11T16:57:46.003Z,30.71
2022-08-11T17:00:51.185Z,31.07
2022-08-11T17:04:19.061Z,31.20
2022-08-11T17:07:43.454Z,31.58
2022-08-11T17:11:13.197Z,31.59
2022-08-11T17:14:35.005Z,31.93
2022-08-11T17:17:40.574Z,31.98
2022-08-11T17:20:44.327Z,32.51
2022-08-11T17:23:51.924Z,33.25
2022-08-11T17:26:59.780Z,32.85
2022-08-11T17:30:06.639Z,33.60
2022-08-11T17:33:31.009Z,36.50
2022-08-11T17:36:37.754Z,38.35
2022-08-11T17:39:43.963Z,38.59
2022-08-11T17:43:05.995Z,38.19
2022-08-11T17:46:27.360Z,40.30
2022-08-11T17:49:37.686Z,40.93
2022-08-11T17:53:01.880Z,41.60
2022-08-11T17:56:24.863Z,42.91
2022-08-11T17:59:49.352Z,42.13
2022-08-11T18:03:13.416Z,43.74
2022-08-11T18:06:18.711Z,44.06
2022-08-11T18:09:41.785Z,44.75
2022-08-11T18:13:06.294Z,43.43
2022-08-11T18:16:28.479Z,44.72
2022-08-11T18:19:50.066Z,44.12
2022-08-11T18:23:14.594Z,46.00
2022-08-11T18:26:39.879Z,46.54
2022-08-11T18:30:02.665Z,47.18
2022-08-11T18:37:34.180Z,47.00
2022-08-11T18:40:56.931Z,47.39
2022-08-11T18:44:23.620Z,47.47
2022-08-11T18:47:47.353Z,48.20
2022-08-11T18:51:30.758Z,48.92
2022-08-11T18:55:02.123Z,49.15
2022-08-11T18:58:29.063Z,49.36
2022-08-11T19:01:53.192Z,48.71
2022-08-11T19:05:17.467Z,48.98
2022-08-11T19:08:41.693Z,49.34
2022-08-11T19:12:06.780Z,50.32
2022-08-11T19:15:29.732Z,51.14
2022-08-11T19:18:53.632Z,51.10
2022-08-11T19:22:15.949Z,52.51
2022-08-11T19:25:40.032Z,51.16
2022-08-11T19:29:04.806Z,50.57
2022-08-11T19:32:27.207Z,51.08
2022-08-11T19:35:50.138Z,51.87
2022-08-11T19:39:13.338Z,50.69
2022-08-11T19:42:36.984Z,50.47
2022-08-11T19:45:59.558Z,50.30
2022-08-11T19:49:22.026Z,50.77
2022-08-11T19:52:44.337Z,50.96
2022-08-11T19:56:11.720Z,51.09
2022-08-11T19:59:33.581Z,50.71
2022-08-11T20:02:55.091Z,48.39
2022-08-11T20:06:21.092Z,45.54
2022-08-11T20:10:04.749Z,45.17
2022-08-11T20:13:28.531Z,44.34
2022-08-11T20:16:51.513Z,44.56
2022-08-11T20:20:16.108Z,46.55
2022-08-11T20:23:39.034Z,45.63
2022-08-11T20:27:01.127Z,45.56
2022-08-11T20:30:23.656Z,45.66
2022-08-11T20:33:45.194Z,45.74
2022-08-11T20:37:08.420Z,46.37
2022-08-11T20:40:31.048Z,46.76
2022-08-11T20:44:06.262Z,47.09
2022-08-11T20:47:59.000Z,47.06
2022-08-11T20:51:17.947Z,47.30
2022-08-11T20:54:44.639Z,47.34
2022-08-11T20:58:08.271Z,47.67
2022-08-11T21:01:42.078Z,47.76
2022-08-11T21:05:03.928Z,47.71
2022-08-11T21:08:26.628Z,48.43
2022-08-11T21:11:52.168Z,48.39
2022-08-11T21:15:15.627Z,49.02
2022-08-11T21:18:59.116Z,48.95
2022-08-11T21:22:22.475Z,48.90
2022-08-11T21:25:53.600Z,49.02
2022-08-11T21:29:18.461Z,49.01
2022-08-11T21:32:41.295Z,48.91
2022-08-11T21:36:03.240Z,49.24
2022-08-11T21:39:26.798Z,49.75
2022-08-11T21:42:53.000Z,49.60
2022-08-11T21:46:15.983Z,49.68
2022-08-11T21:49:38.935Z,50.25
2022-08-11T21:53:00.937Z,49.86
2022-08-11T21:56:27.411Z,49.80
2022-08-11T22:00:03.314Z,50.11
2022-08-11T22:03:45.426Z,50.03
2022-08-11T22:07:12.883Z,50.82
2022-08-11T22:10:42.297Z,50.81
2022-08-11T22:14:07.840Z,51.22
2022-08-11T22:17:29.593Z,50.80
2022-08-11T22:20:51.918Z,50.98
2022-08-11T22:24:18.298Z,51.48
2022-08-11T22:27:53.174Z,51.81
2022-08-11T22:31:16.655Z,51.18
2022-08-11T22:34:40.665Z,51.93
2022-08-11T22:38:17.503Z,52.28
2022-08-11T22:41:41.553Z,52.74
2022-08-11T22:45:02.870Z,53.28
2022-08-11T22:48:26.220Z,53.18
2022-08-11T22:51:48.643Z,53.67
2022-08-11T22:55:11.749Z,53.51
2022-08-11T22:58:33.729Z,53.98
2022-08-11T23:01:57.659Z,54.66
2022-08-11T23:05:19.977Z,54.08
2022-08-11T23:08:42.104Z,54.69
2022-08-11T23:12:06.891Z,55.13
2022-08-11T23:15:32.647Z,54.94
2022-08-11T23:18:58.376Z,55.20
2022-08-11T23:22:22.280Z,55.24
2022-08-11T23:25:46.183Z,54.99
2022-08-11T23:29:08.127Z,55.84
2022-08-11T23:32:29.505Z,55.61
2022-08-11T23:35:58.025Z,56.18
2022-08-11T23:39:23.428Z,55.94
2022-08-11T23:42:46.291Z,56.37
2022-08-11T23:46:08.333Z,56.35
2022-08-11T23:49:30.373Z,56.64
2022-08-11T23:52:53.222Z,56.66
2022-08-11T23:56:14.734Z,56.70
2022-08-11T23:59:36.099Z,56.93
